sensor_id;sensor_type;location;lat;lon;timestamp;P1;durP1;ratioP1;P2;durP2;ratioP2
24173;SDS011;12324;48.146;11.502;2022-12-07T00:01:19;20.73;;;13.45;;
24173;SDS011;12324;48.146;11.502;2022-12-07T00:03:51;21.90;;;13.55;;
24173;SDS011;12324;48.146;11.502;2022-12-07T00:06:19;24.05;;;14.05;;
24173;SDS011;12324;48.146;11.502;2022-12-07T00:08:47;19.98;;;13.63;;
24173;SDS011;12324;48.146;11.502;2022-12-07T00:11:15;21.85;;;13.27;;
24173;SDS011;12324;48.146;11.502;2022-12-07T00:13:44;25.17;;;14.48;;
24173;SDS011;12324;48.146;11.502;2022-12-07T00:16:16;20.33;;;13.13;;
24173;SDS011;12324;48.146;11.502;2022-12-07T00:18:44;22.42;;;13.98;;
24173;SDS011;12324;48.146;11.502;2022-12-07T00:21:12;21.52;;;13.77;;
24173;SDS011;12324;48.146;11.502;2022-12-07T00:23:44;21.70;;;13.85;;
24173;SDS011;12324;48.146;11.502;2022-12-07T00:26:17;20.98;;;12.88;;
24173;SDS011;12324;48.146;11.502;2022-12-07T00:28:48;24.15;;;15.05;;
24173;SDS011;12324;48.146;11.502;2022-12-07T00:31:20;23.88;;;15.18;;
24173;SDS011;12324;48.146;11.502;2022-12-07T00:33:49;21.40;;;13.90;;
24173;SDS011;12324;48.146;11.502;2022-12-07T00:36:17;24.27;;;14.52;;
24173;SDS011;12324;48.146;11.502;2022-12-07T00:38:52;22.60;;;14.55;;
24173;SDS011;12324;48.146;11.502;2022-12-07T00:41:21;20.63;;;13.00;;
24173;SDS011;12324;48.146;11.502;2022-12-07T00:43:49;24.13;;;12.75;;
24173;SDS011;12324;48.146;11.502;2022-12-07T00:46:17;21.35;;;13.07;;
24173;SDS011;12324;48.146;11.502;2022-12-07T00:48:45;20.38;;;12.45;;
24173;SDS011;12324;48.146;11.502;2022-12-07T00:51:13;21.10;;;14.05;;
24173;SDS011;12324;48.146;11.502;2022-12-07T00:53:41;20.48;;;13.00;;
24173;SDS011;12324;48.146;11.502;2022-12-07T00:56:08;20.52;;;13.05;;
24173;SDS011;12324;48.146;11.502;2022-12-07T00:58:37;20.50;;;12.57;;
24173;SDS011;12324;48.146;11.502;2022-12-07T01:01:04;18.60;;;12.10;;
24173;SDS011;12324;48.146;11.502;2022-12-07T01:03:32;20.08;;;13.02;;
24173;SDS011;12324;48.146;11.502;2022-12-07T01:05:59;21.67;;;13.60;;
24173;SDS011;12324;48.146;11.502;2022-12-07T01:08:27;19.48;;;12.15;;
24173;SDS011;12324;48.146;11.502;2022-12-07T01:10:58;19.75;;;12.45;;
24173;SDS011;12324;48.146;11.502;2022-12-07T01:13:27;23.30;;;13.48;;
24173;SDS011;12324;48.146;11.502;2022-12-07T01:15:56;20.67;;;13.43;;
24173;SDS011;12324;48.146;11.502;2022-12-07T01:18:27;21.30;;;14.13;;
24173;SDS011;12324;48.146;11.502;2022-12-07T01:21:01;21.45;;;14.10;;
24173;SDS011;12324;48.146;11.502;2022-12-07T01:26:06;20.50;;;13.45;;
24173;SDS011;12324;48.146;11.502;2022-12-07T01:28:36;22.92;;;13.68;;
24173;SDS011;12324;48.146;11.502;2022-12-07T01:33:32;21.85;;;13.48;;
24173;SDS011;12324;48.146;11.502;2022-12-07T01:36:05;19.58;;;12.57;;
24173;SDS011;12324;48.146;11.502;2022-12-07T01:38:32;21.10;;;13.43;;
24173;SDS011;12324;48.146;11.502;2022-12-07T01:40:59;20.92;;;13.05;;
24173;SDS011;12324;48.146;11.502;2022-12-07T01:43:27;20.98;;;13.27;;
24173;SDS011;12324;48.146;11.502;2022-12-07T01:45:55;20.30;;;12.82;;
24173;SDS011;12324;48.146;11.502;2022-12-07T01:48:24;21.27;;;13.15;;
24173;SDS011;12324;48.146;11.502;2022-12-07T01:51:00;19.02;;;11.98;;
24173;SDS011;12324;48.146;11.502;2022-12-07T01:53:31;21.08;;;13.60;;
24173;SDS011;12324;48.146;11.502;2022-12-07T01:56:01;20.20;;;12.25;;
24173;SDS011;12324;48.146;11.502;2022-12-07T01:58:28;19.17;;;12.70;;
24173;SDS011;12324;48.146;11.502;2022-12-07T02:00:55;20.77;;;11.93;;
24173;SDS011;12324;48.146;11.502;2022-12-07T02:03:27;19.40;;;12.43;;
24173;SDS011;12324;48.146;11.502;2022-12-07T02:05:58;19.73;;;11.88;;
24173;SDS011;12324;48.146;11.502;2022-12-07T02:08:26;19.75;;;12.63;;
24173;SDS011;12324;48.146;11.502;2022-12-07T02:10:53;19.10;;;12.65;;
24173;SDS011;12324;48.146;11.502;2022-12-07T02:13:21;20.38;;;13.30;;
24173;SDS011;12324;48.146;11.502;2022-12-07T02:19:18;22.25;;;14.20;;
24173;SDS011;12324;48.146;11.502;2022-12-07T02:30:06;20.75;;;13.43;;
24173;SDS011;12324;48.146;11.502;2022-12-07T02:35:32;22.05;;;13.77;;
24173;SDS011;12324;48.146;11.502;2022-12-07T02:40:54;19.95;;;13.50;;
24173;SDS011;12324;48.146;11.502;2022-12-07T02:43:39;21.50;;;14.23;;
24173;SDS011;12324;48.146;11.502;2022-12-07T02:46:13;21.40;;;13.68;;
24173;SDS011;12324;48.146;11.502;2022-12-07T02:48:43;19.77;;;13.05;;
24173;SDS011;12324;48.146;11.502;2022-12-07T02:51:11;20.08;;;13.32;;
24173;SDS011;12324;48.146;11.502;2022-12-07T02:53:41;19.95;;;12.80;;
24173;SDS011;12324;48.146;11.502;2022-12-07T02:56:13;21.88;;;12.90;;
24173;SDS011;12324;48.146;11.502;2022-12-07T03:04:40;21.25;;;13.27;;
24173;SDS011;12324;48.146;11.502;2022-12-07T03:18:38;20.60;;;13.18;;
24173;SDS011;12324;48.146;11.502;2022-12-07T03:21:14;19.65;;;13.40;;
24173;SDS011;12324;48.146;11.502;2022-12-07T03:23:48;23.10;;;14.05;;
24173;SDS011;12324;48.146;11.502;2022-12-07T03:26:19;21.95;;;13.55;;
24173;SDS011;12324;48.146;11.502;2022-12-07T03:28:52;21.40;;;12.60;;
24173;SDS011;12324;48.146;11.502;2022-12-07T03:31:22;22.15;;;14.18;;
24173;SDS011;12324;48.146;11.502;2022-12-07T03:34:56;20.10;;;12.30;;
24173;SDS011;12324;48.146;11.502;2022-12-07T03:36:57;21.00;;;13.27;;
24173;SDS011;12324;48.146;11.502;2022-12-07T03:39:43;20.63;;;13.00;;
24173;SDS011;12324;48.146;11.502;2022-12-07T03:42:28;22.77;;;13.90;;
24173;SDS011;12324;48.146;11.502;2022-12-07T03:44:57;22.10;;;14.00;;
24173;SDS011;12324;48.146;11.502;2022-12-07T03:47:31;20.92;;;13.85;;
24173;SDS011;12324;48.146;11.502;2022-12-07T03:50:11;21.05;;;13.52;;
24173;SDS011;12324;48.146;11.502;2022-12-07T03:52:48;22.98;;;14.13;;
24173;SDS011;12324;48.146;11.502;2022-12-07T03:55:25;24.27;;;14.73;;
24173;SDS011;12324;48.146;11.502;2022-12-07T03:57:56;21.93;;;14.27;;
24173;SDS011;12324;48.146;11.502;2022-12-07T04:00:26;22.80;;;15.10;;
24173;SDS011;12324;48.146;11.502;2022-12-07T04:02:54;23.02;;;14.68;;
24173;SDS011;12324;48.146;11.502;2022-12-07T04:05:22;24.85;;;14.63;;
24173;SDS011;12324;48.146;11.502;2022-12-07T04:07:49;20.98;;;13.75;;
24173;SDS011;12324;48.146;11.502;2022-12-07T04:10:16;20.35;;;13.40;;
24173;SDS011;12324;48.146;11.502;2022-12-07T04:12:43;23.25;;;15.18;;
24173;SDS011;12324;48.146;11.502;2022-12-07T04:15:10;22.77;;;15.10;;
24173;SDS011;12324;48.146;11.502;2022-12-07T04:17:37;22.42;;;14.30;;
24173;SDS011;12324;48.146;11.502;2022-12-07T04:20:04;23.67;;;15.23;;
24173;SDS011;12324;48.146;11.502;2022-12-07T04:22:31;22.55;;;15.05;;
24173;SDS011;12324;48.146;11.502;2022-12-07T04:24:58;23.55;;;14.95;;
24173;SDS011;12324;48.146;11.502;2022-12-07T04:27:25;23.77;;;15.10;;
24173;SDS011;12324;48.146;11.502;2022-12-07T04:29:51;22.33;;;14.65;;
24173;SDS011;12324;48.146;11.502;2022-12-07T04:32:18;24.35;;;14.77;;
24173;SDS011;12324;48.146;11.502;2022-12-07T04:34:44;21.67;;;14.75;;
24173;SDS011;12324;48.146;11.502;2022-12-07T04:37:11;24.90;;;16.25;;
24173;SDS011;12324;48.146;11.502;2022-12-07T04:39:38;23.35;;;15.50;;
24173;SDS011;12324;48.146;11.502;2022-12-07T04:42:04;25.13;;;15.73;;
24173;SDS011;12324;48.146;11.502;2022-12-07T04:44:31;23.27;;;15.73;;
24173;SDS011;12324;48.146;11.502;2022-12-07T04:46:57;24.00;;;15.45;;
24173;SDS011;12324;48.146;11.502;2022-12-07T04:49:24;23.45;;;16.55;;
24173;SDS011;12324;48.146;11.502;2022-12-07T04:51:51;23.73;;;15.85;;
24173;SDS011;12324;48.146;11.502;2022-12-07T04:54:18;24.70;;;16.77;;
24173;SDS011;12324;48.146;11.502;2022-12-07T04:56:45;22.92;;;16.10;;
24173;SDS011;12324;48.146;11.502;2022-12-07T04:59:11;25.55;;;16.02;;
24173;SDS011;12324;48.146;11.502;2022-12-07T05:01:39;27.20;;;17.55;;
24173;SDS011;12324;48.146;11.502;2022-12-07T05:04:05;24.05;;;16.40;;
24173;SDS011;12324;48.146;11.502;2022-12-07T05:06:32;25.85;;;16.20;;
24173;SDS011;12324;48.146;11.502;2022-12-07T05:08:59;24.02;;;16.58;;
24173;SDS011;12324;48.146;11.502;2022-12-07T05:11:26;25.05;;;16.88;;
24173;SDS011;12324;48.146;11.502;2022-12-07T05:14:10;26.40;;;17.35;;
24173;SDS011;12324;48.146;11.502;2022-12-07T05:19:07;23.50;;;16.08;;
24173;SDS011;12324;48.146;11.502;2022-12-07T05:21:34;23.85;;;15.77;;
24173;SDS011;12324;48.146;11.502;2022-12-07T05:24:02;25.08;;;17.08;;
24173;SDS011;12324;48.146;11.502;2022-12-07T05:26:29;26.58;;;16.88;;
24173;SDS011;12324;48.146;11.502;2022-12-07T05:28:57;24.95;;;17.20;;
24173;SDS011;12324;48.146;11.502;2022-12-07T05:31:23;25.25;;;17.95;;
24173;SDS011;12324;48.146;11.502;2022-12-07T05:33:51;31.10;;;18.30;;
24173;SDS011;12324;48.146;11.502;2022-12-07T05:36:19;25.92;;;17.98;;
24173;SDS011;12324;48.146;11.502;2022-12-07T05:38:45;26.52;;;17.85;;
24173;SDS011;12324;48.146;11.502;2022-12-07T05:41:13;27.33;;;18.58;;
24173;SDS011;12324;48.146;11.502;2022-12-07T05:44:01;25.33;;;17.40;;
24173;SDS011;12324;48.146;11.502;2022-12-07T05:46:27;26.73;;;18.67;;
24173;SDS011;12324;48.146;11.502;2022-12-07T05:48:54;24.73;;;17.75;;
24173;SDS011;12324;48.146;11.502;2022-12-07T05:51:21;27.60;;;19.08;;
24173;SDS011;12324;48.146;11.502;2022-12-07T05:53:47;25.17;;;17.38;;
24173;SDS011;12324;48.146;11.502;2022-12-07T05:56:14;26.20;;;17.73;;
24173;SDS011;12324;48.146;11.502;2022-12-07T05:58:41;26.17;;;18.30;;
24173;SDS011;12324;48.146;11.502;2022-12-07T06:01:26;24.13;;;16.73;;
24173;SDS011;12324;48.146;11.502;2022-12-07T06:03:54;28.52;;;20.30;;
24173;SDS011;12324;48.146;11.502;2022-12-07T06:06:20;28.02;;;18.52;;
24173;SDS011;12324;48.146;11.502;2022-12-07T06:08:47;26.13;;;18.63;;
24173;SDS011;12324;48.146;11.502;2022-12-07T06:11:14;26.05;;;18.00;;
24173;SDS011;12324;48.146;11.502;2022-12-07T06:13:59;31.20;;;18.85;;
24173;SDS011;12324;48.146;11.502;2022-12-07T06:16:26;28.40;;;19.65;;
24173;SDS011;12324;48.146;11.502;2022-12-07T06:18:53;27.25;;;20.15;;
24173;SDS011;12324;48.146;11.502;2022-12-07T06:21:19;27.27;;;18.35;;
24173;SDS011;12324;48.146;11.502;2022-12-07T06:23:46;26.33;;;18.45;;
24173;SDS011;12324;48.146;11.502;2022-12-07T06:26:13;28.00;;;19.52;;
24173;SDS011;12324;48.146;11.502;2022-12-07T06:28:40;26.38;;;17.73;;
24173;SDS011;12324;48.146;11.502;2022-12-07T06:31:07;26.67;;;19.05;;
24173;SDS011;12324;48.146;11.502;2022-12-07T06:33:39;28.35;;;18.20;;
24173;SDS011;12324;48.146;11.502;2022-12-07T06:36:06;25.83;;;18.05;;
24173;SDS011;12324;48.146;11.502;2022-12-07T06:38:33;26.52;;;17.88;;
24173;SDS011;12324;48.146;11.502;2022-12-07T06:41:00;28.02;;;18.73;;
24173;SDS011;12324;48.146;11.502;2022-12-07T06:43:26;28.63;;;19.23;;
24173;SDS011;12324;48.146;11.502;2022-12-07T06:45:53;27.20;;;18.13;;
24173;SDS011;12324;48.146;11.502;2022-12-07T06:48:20;25.83;;;17.35;;
24173;SDS011;12324;48.146;11.502;2022-12-07T06:50:47;25.23;;;18.35;;
24173;SDS011;12324;48.146;11.502;2022-12-07T06:53:20;26.50;;;19.38;;
24173;SDS011;12324;48.146;11.502;2022-12-07T06:55:47;26.85;;;19.42;;
24173;SDS011;12324;48.146;11.502;2022-12-07T06:58:13;25.83;;;18.90;;
24173;SDS011;12324;48.146;11.502;2022-12-07T07:00:40;25.20;;;17.75;;
24173;SDS011;12324;48.146;11.502;2022-12-07T07:03:07;26.02;;;19.08;;
24173;SDS011;12324;48.146;11.502;2022-12-07T07:05:33;27.35;;;18.02;;
24173;SDS011;12324;48.146;11.502;2022-12-07T07:08:00;24.65;;;17.27;;
24173;SDS011;12324;48.146;11.502;2022-12-07T07:10:47;27.13;;;18.58;;
24173;SDS011;12324;48.146;11.502;2022-12-07T07:13:13;25.48;;;17.60;;
24173;SDS011;12324;48.146;11.502;2022-12-07T07:15:40;24.90;;;17.75;;
24173;SDS011;12324;48.146;11.502;2022-12-07T07:18:07;26.35;;;18.90;;
24173;SDS011;12324;48.146;11.502;2022-12-07T07:20:34;26.02;;;18.52;;
24173;SDS011;12324;48.146;11.502;2022-12-07T07:23:00;27.48;;;19.60;;
24173;SDS011;12324;48.146;11.502;2022-12-07T07:25:27;25.13;;;17.15;;
24173;SDS011;12324;48.146;11.502;2022-12-07T07:27:53;25.83;;;18.45;;
24173;SDS011;12324;48.146;11.502;2022-12-07T07:30:20;25.45;;;17.40;;
24173;SDS011;12324;48.146;11.502;2022-12-07T07:32:47;26.52;;;18.70;;
24173;SDS011;12324;48.146;11.502;2022-12-07T07:35:14;26.90;;;18.75;;
24173;SDS011;12324;48.146;11.502;2022-12-07T07:37:41;27.05;;;19.02;;
24173;SDS011;12324;48.146;11.502;2022-12-07T07:40:08;26.73;;;19.85;;
24173;SDS011;12324;48.146;11.502;2022-12-07T07:42:35;29.48;;;20.02;;
24173;SDS011;12324;48.146;11.502;2022-12-07T07:45:02;30.20;;;21.60;;
24173;SDS011;12324;48.146;11.502;2022-12-07T07:47:30;27.75;;;19.17;;
24173;SDS011;12324;48.146;11.502;2022-12-07T07:49:56;28.67;;;19.25;;
24173;SDS011;12324;48.146;11.502;2022-12-07T07:52:23;25.67;;;18.65;;
24173;SDS011;12324;48.146;11.502;2022-12-07T07:54:50;25.50;;;18.15;;
24173;SDS011;12324;48.146;11.502;2022-12-07T07:57:17;28.55;;;18.88;;
24173;SDS011;12324;48.146;11.502;2022-12-07T07:59:43;28.98;;;19.27;;
24173;SDS011;12324;48.146;11.502;2022-12-07T08:02:14;27.05;;;18.95;;
24173;SDS011;12324;48.146;11.502;2022-12-07T08:04:42;28.90;;;19.90;;
24173;SDS011;12324;48.146;11.502;2022-12-07T08:07:10;29.20;;;20.10;;
24173;SDS011;12324;48.146;11.502;2022-12-07T08:09:37;29.05;;;19.48;;
24173;SDS011;12324;48.146;11.502;2022-12-07T08:12:04;29.45;;;21.30;;
24173;SDS011;12324;48.146;11.502;2022-12-07T08:14:31;28.38;;;20.45;;
24173;SDS011;12324;48.146;11.502;2022-12-07T08:16:58;28.60;;;20.63;;
24173;SDS011;12324;48.146;11.502;2022-12-07T08:19:25;29.20;;;20.10;;
24173;SDS011;12324;48.146;11.502;2022-12-07T08:21:52;35.05;;;21.88;;
24173;SDS011;12324;48.146;11.502;2022-12-07T08:24:18;26.85;;;19.52;;
24173;SDS011;12324;48.146;11.502;2022-12-07T08:26:45;27.95;;;19.23;;
24173;SDS011;12324;48.146;11.502;2022-12-07T08:29:12;27.05;;;19.90;;
24173;SDS011;12324;48.146;11.502;2022-12-07T08:31:38;29.65;;;21.13;;
24173;SDS011;12324;48.146;11.502;2022-12-07T08:34:05;28.80;;;21.08;;
24173;SDS011;12324;48.146;11.502;2022-12-07T08:36:32;29.75;;;20.80;;
24173;SDS011;12324;48.146;11.502;2022-12-07T08:38:59;27.98;;;19.60;;
24173;SDS011;12324;48.146;11.502;2022-12-07T08:41:45;29.23;;;20.60;;
24173;SDS011;12324;48.146;11.502;2022-12-07T08:44:12;31.63;;;22.33;;
24173;SDS011;12324;48.146;11.502;2022-12-07T08:46:40;28.13;;;20.13;;
24173;SDS011;12324;48.146;11.502;2022-12-07T08:49:16;26.23;;;19.25;;
24173;SDS011;12324;48.146;11.502;2022-12-07T08:51:50;27.67;;;18.85;;
24173;SDS011;12324;48.146;11.502;2022-12-07T08:54:17;25.38;;;18.58;;
24173;SDS011;12324;48.146;11.502;2022-12-07T08:56:45;28.70;;;20.15;;
24173;SDS011;12324;48.146;11.502;2022-12-07T08:59:15;27.42;;;19.02;;
24173;SDS011;12324;48.146;11.502;2022-12-07T09:01:43;27.27;;;19.30;;
24173;SDS011;12324;48.146;11.502;2022-12-07T09:04:10;26.95;;;18.50;;
24173;SDS011;12324;48.146;11.502;2022-12-07T09:06:37;25.05;;;17.05;;
24173;SDS011;12324;48.146;11.502;2022-12-07T09:09:04;25.45;;;17.52;;
24173;SDS011;12324;48.146;11.502;2022-12-07T09:11:33;23.70;;;16.45;;
24173;SDS011;12324;48.146;11.502;2022-12-07T09:13:59;26.90;;;18.13;;
24173;SDS011;12324;48.146;11.502;2022-12-07T09:16:26;23.67;;;16.98;;
24173;SDS011;12324;48.146;11.502;2022-12-07T09:18:53;23.95;;;16.35;;
24173;SDS011;12324;48.146;11.502;2022-12-07T09:21:20;25.08;;;16.52;;
24173;SDS011;12324;48.146;11.502;2022-12-07T09:23:46;24.85;;;16.38;;
24173;SDS011;12324;48.146;11.502;2022-12-07T09:26:13;24.95;;;16.42;;
24173;SDS011;12324;48.146;11.502;2022-12-07T09:28:40;26.33;;;17.90;;
24173;SDS011;12324;48.146;11.502;2022-12-07T09:31:07;24.13;;;16.30;;
24173;SDS011;12324;48.146;11.502;2022-12-07T09:33:55;24.60;;;15.48;;
24173;SDS011;12324;48.146;11.502;2022-12-07T09:36:23;24.25;;;16.15;;
24173;SDS011;12324;48.146;11.502;2022-12-07T09:38:50;25.15;;;15.75;;
24173;SDS011;12324;48.146;11.502;2022-12-07T09:41:17;24.13;;;16.48;;
24173;SDS011;12324;48.146;11.502;2022-12-07T09:43:44;25.02;;;17.13;;
24173;SDS011;12324;48.146;11.502;2022-12-07T09:46:13;24.50;;;17.27;;
24173;SDS011;12324;48.146;11.502;2022-12-07T09:48:43;24.70;;;17.83;;
24173;SDS011;12324;48.146;11.502;2022-12-07T09:51:13;22.88;;;15.38;;
24173;SDS011;12324;48.146;11.502;2022-12-07T09:53:50;24.13;;;16.10;;
24173;SDS011;12324;48.146;11.502;2022-12-07T09:56:21;25.15;;;17.38;;
24173;SDS011;12324;48.146;11.502;2022-12-07T09:58:50;25.10;;;16.95;;
24173;SDS011;12324;48.146;11.502;2022-12-07T10:01:32;21.80;;;14.10;;
24173;SDS011;12324;48.146;11.502;2022-12-07T10:04:13;23.23;;;15.45;;
24173;SDS011;12324;48.146;11.502;2022-12-07T10:06:47;26.38;;;17.33;;
24173;SDS011;12324;48.146;11.502;2022-12-07T10:09:15;24.55;;;16.83;;
24173;SDS011;12324;48.146;11.502;2022-12-07T10:14:38;23.25;;;14.68;;
24173;SDS011;12324;48.146;11.502;2022-12-07T10:20:15;23.45;;;14.48;;
24173;SDS011;12324;48.146;11.502;2022-12-07T10:25:44;21.35;;;14.73;;
24173;SDS011;12324;48.146;11.502;2022-12-07T10:28:15;21.98;;;14.13;;
24173;SDS011;12324;48.146;11.502;2022-12-07T10:31:03;20.77;;;13.88;;
24173;SDS011;12324;48.146;11.502;2022-12-07T10:33:49;20.08;;;13.10;;
24173;SDS011;12324;48.146;11.502;2022-12-07T10:36:26;22.23;;;14.65;;
24173;SDS011;12324;48.146;11.502;2022-12-07T10:39:13;22.35;;;13.05;;
24173;SDS011;12324;48.146;11.502;2022-12-07T10:44:23;23.83;;;13.70;;
24173;SDS011;12324;48.146;11.502;2022-12-07T10:52:01;19.75;;;12.77;;
24173;SDS011;12324;48.146;11.502;2022-12-07T10:57:47;21.33;;;12.70;;
24173;SDS011;12324;48.146;11.502;2022-12-07T11:00:34;18.75;;;10.90;;
24173;SDS011;12324;48.146;11.502;2022-12-07T11:03:16;17.70;;;10.55;;
24173;SDS011;12324;48.146;11.502;2022-12-07T11:11:33;20.25;;;10.52;;
24173;SDS011;12324;48.146;11.502;2022-12-07T11:19:47;17.75;;;9.38;;
24173;SDS011;12324;48.146;11.502;2022-12-07T11:25:18;17.95;;;10.85;;
24173;SDS011;12324;48.146;11.502;2022-12-07T11:33:28;20.17;;;10.00;;
24173;SDS011;12324;48.146;11.502;2022-12-07T11:36:16;16.85;;;9.65;;
24173;SDS011;12324;48.146;11.502;2022-12-07T11:38:53;17.70;;;9.23;;
24173;SDS011;12324;48.146;11.502;2022-12-07T11:41:25;17.98;;;10.07;;
24173;SDS011;12324;48.146;11.502;2022-12-07T11:44:07;19.02;;;9.75;;
24173;SDS011;12324;48.146;11.502;2022-12-07T11:47:13;20.55;;;9.60;;
24173;SDS011;12324;48.146;11.502;2022-12-07T11:55:21;15.02;;;7.65;;
24173;SDS011;12324;48.146;11.502;2022-12-07T12:03:46;14.60;;;7.72;;
24173;SDS011;12324;48.146;11.502;2022-12-07T12:06:19;15.82;;;7.88;;
24173;SDS011;12324;48.146;11.502;2022-12-07T12:09:33;16.05;;;8.18;;
24173;SDS011;12324;48.146;11.502;2022-12-07T12:23:21;18.50;;;9.43;;
24173;SDS011;12324;48.146;11.502;2022-12-07T12:25:59;16.92;;;7.70;;
24173;SDS011;12324;48.146;11.502;2022-12-07T12:28:49;17.88;;;9.07;;
24173;SDS011;12324;48.146;11.502;2022-12-07T12:31:31;15.75;;;7.88;;
24173;SDS011;12324;48.146;11.502;2022-12-07T12:34:03;17.80;;;8.57;;
24173;SDS011;12324;48.146;11.502;2022-12-07T12:36:49;16.80;;;8.57;;
24173;SDS011;12324;48.146;11.502;2022-12-07T12:39:17;17.10;;;8.63;;
24173;SDS011;12324;48.146;11.502;2022-12-07T12:46:53;18.08;;;9.48;;
24173;SDS011;12324;48.146;11.502;2022-12-07T12:51:58;16.88;;;8.80;;
24173;SDS011;12324;48.146;11.502;2022-12-07T12:54:30;16.10;;;8.60;;
24173;SDS011;12324;48.146;11.502;2022-12-07T13:02:46;17.63;;;9.35;;
24173;SDS011;12324;48.146;11.502;2022-12-07T13:15:46;23.63;;;10.32;;
24173;SDS011;12324;48.146;11.502;2022-12-07T13:20:51;17.63;;;9.52;;
24173;SDS011;12324;48.146;11.502;2022-12-07T13:26:27;17.67;;;9.68;;
24173;SDS011;12324;48.146;11.502;2022-12-07T13:29:13;16.83;;;9.05;;
24173;SDS011;12324;48.146;11.502;2022-12-07T13:31:44;16.25;;;9.35;;
24173;SDS011;12324;48.146;11.502;2022-12-07T13:34:35;18.23;;;9.68;;
24173;SDS011;12324;48.146;11.502;2022-12-07T13:39:49;19.15;;;10.73;;
24173;SDS011;12324;48.146;11.502;2022-12-07T13:47:39;20.80;;;10.98;;
24173;SDS011;12324;48.146;11.502;2022-12-07T13:50:21;19.30;;;10.05;;
24173;SDS011;12324;48.146;11.502;2022-12-07T13:52:58;21.50;;;10.60;;
24173;SDS011;12324;48.146;11.502;2022-12-07T13:55:26;19.52;;;10.30;;
24173;SDS011;12324;48.146;11.502;2022-12-07T13:57:55;18.65;;;10.38;;
24173;SDS011;12324;48.146;11.502;2022-12-07T14:00:23;18.85;;;10.63;;
24173;SDS011;12324;48.146;11.502;2022-12-07T14:05:38;16.30;;;8.38;;
24173;SDS011;12324;48.146;11.502;2022-12-07T14:10:40;17.13;;;8.10;;
24173;SDS011;12324;48.146;11.502;2022-12-07T14:13:27;14.65;;;6.97;;
24173;SDS011;12324;48.146;11.502;2022-12-07T14:16:06;17.58;;;8.48;;
24173;SDS011;12324;48.146;11.502;2022-12-07T14:18:55;18.23;;;7.70;;
24173;SDS011;12324;48.146;11.502;2022-12-07T14:21:24;16.80;;;7.80;;
24173;SDS011;12324;48.146;11.502;2022-12-07T14:26:35;15.95;;;7.18;;
24173;SDS011;12324;48.146;11.502;2022-12-07T14:32:17;14.70;;;7.10;;
24173;SDS011;12324;48.146;11.502;2022-12-07T14:35:01;19.77;;;7.10;;
24173;SDS011;12324;48.146;11.502;2022-12-07T14:37:36;14.27;;;6.90;;
24173;SDS011;12324;48.146;11.502;2022-12-07T14:40:04;17.02;;;7.72;;
24173;SDS011;12324;48.146;11.502;2022-12-07T14:42:31;16.70;;;7.75;;
24173;SDS011;12324;48.146;11.502;2022-12-07T14:45:00;15.32;;;7.63;;
24173;SDS011;12324;48.146;11.502;2022-12-07T14:47:27;17.70;;;7.70;;
24173;SDS011;12324;48.146;11.502;2022-12-07T14:50:15;18.95;;;8.25;;
24173;SDS011;12324;48.146;11.502;2022-12-07T14:52:45;17.23;;;8.48;;
24173;SDS011;12324;48.146;11.502;2022-12-07T14:55:38;16.83;;;8.88;;
24173;SDS011;12324;48.146;11.502;2022-12-07T14:58:04;16.20;;;8.00;;
24173;SDS011;12324;48.146;11.502;2022-12-07T15:00:31;16.88;;;8.73;;
24173;SDS011;12324;48.146;11.502;2022-12-07T15:03:00;17.05;;;8.82;;
24173;SDS011;12324;48.146;11.502;2022-12-07T15:05:27;16.38;;;8.43;;
24173;SDS011;12324;48.146;11.502;2022-12-07T15:07:53;17.13;;;9.15;;
24173;SDS011;12324;48.146;11.502;2022-12-07T15:10:24;18.10;;;9.75;;
24173;SDS011;12324;48.146;11.502;2022-12-07T15:12:56;21.05;;;9.20;;
24173;SDS011;12324;48.146;11.502;2022-12-07T15:15:50;17.73;;;9.85;;
24173;SDS011;12324;48.146;11.502;2022-12-07T15:18:18;18.42;;;9.52;;
24173;SDS011;12324;48.146;11.502;2022-12-07T15:20:46;21.02;;;9.70;;
24173;SDS011;12324;48.146;11.502;2022-12-07T15:23:13;20.55;;;10.77;;
24173;SDS011;12324;48.146;11.502;2022-12-07T15:25:41;19.95;;;10.10;;
24173;SDS011;12324;48.146;11.502;2022-12-07T15:28:09;17.88;;;10.13;;
24173;SDS011;12324;48.146;11.502;2022-12-07T15:30:39;18.50;;;9.70;;
24173;SDS011;12324;48.146;11.502;2022-12-07T15:33:09;19.70;;;9.50;;
24173;SDS011;12324;48.146;11.502;2022-12-07T15:35:43;18.92;;;10.48;;
24173;SDS011;12324;48.146;11.502;2022-12-07T15:38:11;20.70;;;10.77;;
24173;SDS011;12324;48.146;11.502;2022-12-07T15:40:38;18.80;;;10.50;;
24173;SDS011;12324;48.146;11.502;2022-12-07T15:43:05;21.48;;;12.23;;
24173;SDS011;12324;48.146;11.502;2022-12-07T15:45:51;20.67;;;11.15;;
24173;SDS011;12324;48.146;11.502;2022-12-07T15:48:18;20.02;;;10.77;;
24173;SDS011;12324;48.146;11.502;2022-12-07T15:51:01;22.50;;;12.02;;
24173;SDS011;12324;48.146;11.502;2022-12-07T15:53:31;21.15;;;11.65;;
24173;SDS011;12324;48.146;11.502;2022-12-07T15:55:59;20.00;;;10.35;;
24173;SDS011;12324;48.146;11.502;2022-12-07T15:58:26;19.95;;;9.85;;
24173;SDS011;12324;48.146;11.502;2022-12-07T16:00:53;19.05;;;10.25;;
24173;SDS011;12324;48.146;11.502;2022-12-07T16:03:20;22.33;;;11.85;;
24173;SDS011;12324;48.146;11.502;2022-12-07T16:05:50;21.48;;;10.38;;
24173;SDS011;12324;48.146;11.502;2022-12-07T16:08:18;21.70;;;10.57;;
24173;SDS011;12324;48.146;11.502;2022-12-07T16:10:45;18.95;;;9.57;;
24173;SDS011;12324;48.146;11.502;2022-12-07T16:13:12;20.83;;;11.35;;
24173;SDS011;12324;48.146;11.502;2022-12-07T16:15:40;19.85;;;10.25;;
24173;SDS011;12324;48.146;11.502;2022-12-07T16:18:07;20.48;;;10.82;;
24173;SDS011;12324;48.146;11.502;2022-12-07T16:20:34;26.35;;;12.45;;
24173;SDS011;12324;48.146;11.502;2022-12-07T16:23:01;20.08;;;11.07;;
24173;SDS011;12324;48.146;11.502;2022-12-07T16:25:28;23.88;;;11.15;;
24173;SDS011;12324;48.146;11.502;2022-12-07T16:27:55;24.38;;;12.68;;
24173;SDS011;12324;48.146;11.502;2022-12-07T16:30:21;24.40;;;11.60;;
24173;SDS011;12324;48.146;11.502;2022-12-07T16:32:48;22.85;;;11.48;;
24173;SDS011;12324;48.146;11.502;2022-12-07T16:35:15;21.77;;;12.32;;
24173;SDS011;12324;48.146;11.502;2022-12-07T16:37:42;24.02;;;12.32;;
24173;SDS011;12324;48.146;11.502;2022-12-07T16:40:09;24.95;;;11.73;;
24173;SDS011;12324;48.146;11.502;2022-12-07T16:42:36;21.65;;;11.68;;
24173;SDS011;12324;48.146;11.502;2022-12-07T16:45:03;24.27;;;10.68;;
24173;SDS011;12324;48.146;11.502;2022-12-07T16:47:31;22.05;;;11.68;;
24173;SDS011;12324;48.146;11.502;2022-12-07T16:49:58;25.80;;;12.23;;
24173;SDS011;12324;48.146;11.502;2022-12-07T16:52:24;22.48;;;12.70;;
24173;SDS011;12324;48.146;11.502;2022-12-07T16:54:51;23.75;;;12.52;;
24173;SDS011;12324;48.146;11.502;2022-12-07T16:57:17;35.40;;;27.63;;
24173;SDS011;12324;48.146;11.502;2022-12-07T16:59:48;27.13;;;16.67;;
24173;SDS011;12324;48.146;11.502;2022-12-07T17:02:15;22.17;;;13.32;;
24173;SDS011;12324;48.146;11.502;2022-12-07T17:04:42;24.17;;;15.05;;